createdAt,value
2019-02-23T00:02:16.070Z,2.00
2019-02-23T00:04:44.490Z,1.90
2019-02-23T00:07:12.941Z,2.00
2019-02-23T00:09:41.357Z,1.90
2019-02-23T00:12:09.798Z,1.90
2019-02-23T00:14:38.226Z,1.80
2019-02-23T00:17:06.659Z,1.80
2019-02-23T00:19:35.088Z,1.60
2019-02-23T00:22:03.576Z,1.50
2019-02-23T00:24:32.099Z,1.50
2019-02-23T00:27:00.545Z,1.50
2019-02-23T00:29:28.966Z,1.50
2019-02-23T00:31:57.412Z,1.40
2019-02-23T00:34:25.849Z,1.40
2019-02-23T00:36:54.276Z,1.30
2019-02-23T00:39:22.723Z,1.30
2019-02-23T00:41:51.140Z,1.20
2019-02-23T00:44:19.575Z,1.20
2019-02-23T00:46:47.991Z,1.30
2019-02-23T00:49:16.426Z,1.40
2019-02-23T00:51:44.854Z,1.50
2019-02-23T00:54:13.310Z,1.50
2019-02-23T00:56:41.738Z,1.50
2019-02-23T00:59:10.190Z,1.60
2019-02-23T01:01:38.627Z,1.70
2019-02-23T01:04:07.058Z,1.70
2019-02-23T01:06:35.479Z,1.70
2019-02-23T01:09:04.958Z,1.70
2019-02-23T01:11:33.467Z,1.70
2019-02-23T01:14:01.910Z,1.70
2019-02-23T01:16:30.334Z,1.60
2019-02-23T01:18:58.776Z,1.60
2019-02-23T01:21:27.201Z,1.50
2019-02-23T01:23:55.650Z,1.60
2019-02-23T01:26:24.088Z,1.60
2019-02-23T01:28:52.526Z,1.60
2019-02-23T01:31:20.955Z,1.50
2019-02-23T01:33:49.475Z,1.50
2019-02-23T01:36:17.993Z,1.50
2019-02-23T01:38:46.454Z,1.50
2019-02-23T01:41:14.942Z,1.50
2019-02-23T01:43:43.452Z,1.40
2019-02-23T01:46:11.886Z,1.40
2019-02-23T01:48:40.378Z,1.40
2019-02-23T01:51:08.823Z,1.40
2019-02-23T01:53:37.242Z,1.40
2019-02-23T01:56:05.684Z,1.40
2019-02-23T01:58:34.119Z,1.40
2019-02-23T02:01:02.630Z,1.30
2019-02-23T02:03:31.050Z,1.30
2019-02-23T02:05:59.562Z,1.30
2019-02-23T02:08:27.986Z,1.30
2019-02-23T02:10:56.501Z,1.30
2019-02-23T02:13:24.995Z,1.30
2019-02-23T02:15:53.506Z,1.30
2019-02-23T02:18:21.930Z,1.20
2019-02-23T02:20:50.366Z,1.20
2019-02-23T02:23:18.798Z,1.20
2019-02-23T02:25:47.226Z,1.20
2019-02-23T02:28:15.684Z,1.10
2019-02-23T02:30:44.098Z,1.00
2019-02-23T02:33:12.558Z,0.90
2019-02-23T02:35:40.993Z,0.90
2019-02-23T02:38:09.428Z,0.80
2019-02-23T02:40:37.855Z,0.70
2019-02-23T02:43:06.311Z,0.60
2019-02-23T02:45:34.712Z,0.50
2019-02-23T02:48:03.174Z,0.50
2019-02-23T02:50:31.580Z,0.40
2019-02-23T02:53:00.023Z,0.30
2019-02-23T02:55:28.454Z,0.20
2019-02-23T02:57:56.888Z,0.20
2019-02-23T03:00:25.310Z,0.10
2019-02-23T03:02:53.742Z,0.10
2019-02-23T03:05:22.167Z,0.10
2019-02-23T03:07:50.624Z,0.00
2019-02-23T03:10:19.025Z,0.00
2019-02-23T03:12:47.444Z,0.00
2019-02-23T03:15:15.984Z,-0.10
2019-02-23T03:17:44.405Z,-0.20
2019-02-23T03:20:12.848Z,-0.30
2019-02-23T03:22:41.274Z,-0.20
2019-02-23T03:25:09.722Z,-0.30
2019-02-23T03:27:38.136Z,-0.40
2019-02-23T03:30:09.488Z,-0.30
2019-02-23T03:32:37.953Z,-0.30
2019-02-23T03:35:06.544Z,-0.40
2019-02-23T03:37:34.954Z,-0.40
2019-02-23T03:40:03.417Z,-0.40
2019-02-23T03:42:31.834Z,-0.50
2019-02-23T03:45:00.419Z,-0.60
2019-02-23T03:47:28.890Z,-0.60
2019-02-23T03:49:57.343Z,-0.60
2019-02-23T03:52:25.770Z,-0.70
2019-02-23T03:54:54.222Z,-0.70
2019-02-23T03:57:22.716Z,-0.70
2019-02-23T03:59:51.304Z,-0.70
2019-02-23T04:02:19.827Z,-0.70
2019-02-23T04:04:48.275Z,-0.80
2019-02-23T04:07:16.884Z,-0.70
2019-02-23T04:09:45.301Z,-0.70
2019-02-23T04:12:13.759Z,-0.80
2019-02-23T04:14:42.193Z,-0.80
2019-02-23T04:17:10.638Z,-0.90
2019-02-23T04:19:39.080Z,-0.90
2019-02-23T04:22:07.588Z,-0.90
2019-02-23T04:24:36.002Z,-0.80
2019-02-23T04:27:04.455Z,-0.80
2019-02-23T04:29:32.892Z,-0.80
2019-02-23T04:32:01.326Z,-0.80
2019-02-23T04:34:29.750Z,-0.80
2019-02-23T04:36:58.190Z,-0.90
2019-02-23T04:39:28.285Z,-0.90
2019-02-23T04:41:56.736Z,-0.90
2019-02-23T04:44:25.183Z,-0.90
2019-02-23T04:46:53.631Z,-1.00
2019-02-23T04:49:22.077Z,-1.10
2019-02-23T04:51:50.571Z,-1.10
2019-02-23T04:54:18.994Z,-1.10
2019-02-23T04:56:47.457Z,-1.20
2019-02-23T04:59:15.885Z,-1.20
2019-02-23T05:01:44.402Z,-1.30
2019-02-23T05:04:12.983Z,-1.30
2019-02-23T05:06:41.494Z,-1.30
2019-02-23T05:09:09.926Z,-1.40
2019-02-23T05:11:38.371Z,-1.40
2019-02-23T05:14:06.806Z,-1.40
2019-02-23T05:16:35.234Z,-1.40
2019-02-23T05:19:03.686Z,-1.40
2019-02-23T05:21:32.189Z,-1.50
2019-02-23T05:24:00.632Z,-1.50
2019-02-23T05:26:29.050Z,-1.60
2019-02-23T05:28:57.498Z,-1.60
2019-02-23T05:31:25.920Z,-1.60
2019-02-23T05:33:54.367Z,-1.60
2019-02-23T05:36:22.801Z,-1.70
2019-02-23T05:38:51.248Z,-1.70
2019-02-23T05:41:19.671Z,-1.70
2019-02-23T05:43:48.128Z,-1.80
2019-02-23T05:46:16.550Z,-1.80
2019-02-23T05:48:44.995Z,-1.90
2019-02-23T05:51:13.428Z,-2.00
2019-02-23T05:53:41.880Z,-2.10
2019-02-23T05:56:15.106Z,-2.10
2019-02-23T05:58:40.479Z,-2.10
2019-02-23T06:01:08.904Z,-2.20
2019-02-23T06:03:37.356Z,-2.20
2019-02-23T06:06:05.784Z,-2.20
2019-02-23T06:08:34.247Z,-2.20
2019-02-23T06:11:02.750Z,-2.30
2019-02-23T06:13:31.259Z,-2.30
2019-02-23T06:15:59.683Z,-2.30
2019-02-23T06:18:28.971Z,-2.20
2019-02-23T06:20:57.429Z,-2.20
2019-02-23T06:23:25.858Z,-2.20
2019-02-23T06:25:54.303Z,-2.20
2019-02-23T06:28:22.728Z,-2.20
2019-02-23T06:30:51.176Z,-2.10
2019-02-23T06:33:19.598Z,-2.10
2019-02-23T06:35:48.046Z,-2.10
2019-02-23T06:38:16.490Z,-2.10
2019-02-23T06:40:44.951Z,-2.10
2019-02-23T06:43:13.372Z,-2.00
2019-02-23T06:45:41.843Z,-2.10
2019-02-23T06:48:10.255Z,-2.10
2019-02-23T06:50:38.717Z,-2.10
2019-02-23T06:53:07.227Z,-2.10
2019-02-23T06:55:35.671Z,-2.00
2019-02-23T06:58:04.104Z,-2.00
2019-02-23T07:00:32.627Z,-2.00
2019-02-23T07:03:01.055Z,-1.90
2019-02-23T07:05:29.498Z,-1.90
2019-02-23T07:07:57.994Z,-1.80
2019-02-23T07:10:26.430Z,-1.60
2019-02-23T07:12:54.886Z,-1.50
2019-02-23T07:15:23.330Z,-1.40
2019-02-23T07:17:51.803Z,-1.40
2019-02-23T07:20:20.286Z,-1.40
2019-02-23T07:22:48.737Z,-1.30
2019-02-23T07:25:17.168Z,-1.20
2019-02-23T07:27:45.614Z,-1.20
2019-02-23T07:30:14.655Z,-1.10
2019-02-23T07:32:43.103Z,-1.10
2019-02-23T07:35:11.621Z,-1.10
2019-02-23T07:37:40.076Z,-1.00
2019-02-23T07:40:10.857Z,-0.90
2019-02-23T07:42:39.300Z,-0.90
2019-02-23T07:45:09.571Z,-0.90
2019-02-23T07:47:38.086Z,-0.80
2019-02-23T07:50:09.950Z,-0.80
2019-02-23T07:52:38.395Z,-0.70
2019-02-23T07:55:07.066Z,-0.70
2019-02-23T07:57:37.127Z,-0.60
2019-02-23T08:00:08.697Z,-0.60
2019-02-23T08:02:37.214Z,-0.50
2019-02-23T08:05:08.380Z,-0.40
2019-02-23T08:07:36.900Z,-0.40
2019-02-23T08:10:08.702Z,-0.30
2019-02-23T08:12:37.152Z,-0.30
2019-02-23T08:15:08.490Z,-0.20
2019-02-23T08:17:36.921Z,0.00
2019-02-23T08:20:13.200Z,0.10
2019-02-23T08:22:41.660Z,0.10
2019-02-23T08:25:12.454Z,0.30
2019-02-23T08:27:40.883Z,0.40
2019-02-23T08:30:16.266Z,0.50
2019-02-23T08:32:44.692Z,0.60
2019-02-23T08:35:13.265Z,0.90
2019-02-23T08:37:41.694Z,1.00
2019-02-23T08:40:17.221Z,1.10
2019-02-23T08:42:45.629Z,1.40
2019-02-23T08:45:14.134Z,1.70
2019-02-23T08:47:44.217Z,1.90
2019-02-23T08:50:14.276Z,2.00
2019-02-23T08:52:49.280Z,2.30
2019-02-23T08:55:12.858Z,2.40
2019-02-23T08:57:41.274Z,2.80
2019-02-23T09:00:12.521Z,2.80
2019-02-23T09:02:40.963Z,2.80
2019-02-23T09:05:10.527Z,3.30
2019-02-23T09:07:38.971Z,3.60
2019-02-23T09:10:10.507Z,3.90
2019-02-23T09:12:39.008Z,3.90
2019-02-23T09:15:08.679Z,3.60
2019-02-23T09:17:37.123Z,3.90
2019-02-23T09:20:08.065Z,4.20
2019-02-23T09:22:36.521Z,4.00
2019-02-23T09:25:06.604Z,4.10
2019-02-23T09:27:35.054Z,4.30
2019-02-23T09:30:04.027Z,4.80
2019-02-23T09:32:32.471Z,5.00
2019-02-23T09:35:00.904Z,5.00
2019-02-23T09:37:29.355Z,5.10
2019-02-23T09:39:57.769Z,5.00
2019-02-23T09:42:26.210Z,4.70
2019-02-23T09:44:54.635Z,4.90
2019-02-23T09:47:23.142Z,5.10
2019-02-23T09:49:51.583Z,4.80
2019-02-23T09:52:20.036Z,4.70
2019-02-23T09:54:48.447Z,4.90
2019-02-23T09:57:16.955Z,5.40
2019-02-23T09:59:45.370Z,5.60
2019-02-23T10:02:13.898Z,5.20
2019-02-23T10:04:42.315Z,5.60
2019-02-23T10:07:10.739Z,6.40
2019-02-23T10:09:39.251Z,6.50
2019-02-23T10:12:07.713Z,6.50
2019-02-23T10:14:36.218Z,6.60
2019-02-23T10:17:04.701Z,6.60
2019-02-23T10:19:33.157Z,6.80
2019-02-23T10:22:01.571Z,6.90
2019-02-23T10:24:30.005Z,7.20
2019-02-23T10:26:58.498Z,6.80
2019-02-23T10:29:26.939Z,7.20
2019-02-23T10:31:55.363Z,7.70
2019-02-23T10:34:23.804Z,7.80
2019-02-23T10:36:52.228Z,7.70
2019-02-23T10:39:20.743Z,7.80
2019-02-23T10:41:49.161Z,7.00
2019-02-23T10:44:17.604Z,7.50
2019-02-23T10:46:47.548Z,7.80
2019-02-23T10:49:16.011Z,7.80
2019-02-23T10:51:44.509Z,7.30
2019-02-23T10:54:12.935Z,7.50
2019-02-23T10:56:41.388Z,7.70
2019-02-23T10:59:09.799Z,7.30
2019-02-23T11:01:38.244Z,7.50
2019-02-23T11:04:06.731Z,7.70
2019-02-23T11:06:35.245Z,7.90
2019-02-23T11:09:03.898Z,7.70
2019-02-23T11:11:32.358Z,7.90
2019-02-23T11:14:00.767Z,7.60
2019-02-23T11:16:29.217Z,7.60
2019-02-23T11:18:57.636Z,8.00
2019-02-23T11:21:26.156Z,8.00
2019-02-23T11:23:54.593Z,8.20
2019-02-23T11:26:23.035Z,7.70
2019-02-23T11:28:51.474Z,8.00
2019-02-23T11:31:19.986Z,8.40
2019-02-23T11:33:48.398Z,8.30
2019-02-23T11:36:16.851Z,8.40
2019-02-23T11:38:45.271Z,8.60
2019-02-23T11:41:13.719Z,8.10
2019-02-23T11:43:42.138Z,7.70
2019-02-23T11:46:10.586Z,8.10
2019-02-23T11:48:39.006Z,8.10
2019-02-23T11:51:07.436Z,7.80
2019-02-23T11:53:35.880Z,8.30
2019-02-23T11:56:04.386Z,8.10
2019-02-23T11:58:32.810Z,8.20
2019-02-23T12:01:01.217Z,8.30
2019-02-23T12:03:29.673Z,8.50
2019-02-23T12:05:58.097Z,8.00
2019-02-23T12:08:26.557Z,8.30
2019-02-23T12:10:54.976Z,8.40
2019-02-23T12:13:23.431Z,8.80
2019-02-23T12:15:51.867Z,9.20
2019-02-23T12:18:20.311Z,9.00
2019-02-23T12:20:48.742Z,8.70
2019-02-23T12:23:17.197Z,8.40
2019-02-23T12:25:45.662Z,8.50
2019-02-23T12:28:14.124Z,8.50
2019-02-23T12:30:42.572Z,8.70
2019-02-23T12:33:11.011Z,8.90
2019-02-23T12:35:39.430Z,8.60
2019-02-23T12:38:07.878Z,8.90
2019-02-23T12:40:36.289Z,9.00
2019-02-23T12:43:04.742Z,8.70
2019-02-23T12:45:33.157Z,8.60
2019-02-23T12:48:01.620Z,8.90
2019-02-23T12:50:30.115Z,8.90
2019-02-23T12:52:59.842Z,8.70
2019-02-23T12:55:28.472Z,9.00
2019-02-23T12:57:56.942Z,9.10
2019-02-23T13:00:25.384Z,9.30
2019-02-23T13:02:53.786Z,9.60
2019-02-23T13:05:22.237Z,9.40
2019-02-23T13:07:50.709Z,9.20
2019-02-23T13:10:19.223Z,9.50
2019-02-23T13:13:14.402Z,9.50
2019-02-23T13:16:00.602Z,9.20
2019-02-23T13:18:43.895Z,9.10
2019-02-23T13:21:24.191Z,9.50
2019-02-23T13:24:13.374Z,9.70
2019-02-23T13:26:44.892Z,9.90
2019-02-23T13:29:16.383Z,9.80
2019-02-23T13:32:05.564Z,9.60
2019-02-23T13:34:46.148Z,9.40
2019-02-23T13:37:34.150Z,9.50
2019-02-23T13:40:20.308Z,9.40
2019-02-23T13:43:06.777Z,9.40
2019-02-23T13:45:44.243Z,9.00
2019-02-23T13:48:47.268Z,9.20
2019-02-23T13:51:30.593Z,9.30
2019-02-23T13:54:10.786Z,9.40
2019-02-23T13:56:56.921Z,9.40
2019-02-23T13:59:44.555Z,9.40
2019-02-23T14:02:40.083Z,9.60
2019-02-23T14:05:46.012Z,9.80
2019-02-23T14:08:28.818Z,9.90
2019-02-23T14:11:24.107Z,9.90
2019-02-23T14:14:11.834Z,9.90
2019-02-23T14:17:05.292Z,9.50
2019-02-23T14:19:39.526Z,9.40
2019-02-23T14:22:16.731Z,9.20
2019-02-23T14:25:13.823Z,8.80
2019-02-23T14:28:18.218Z,8.60
2019-02-23T14:30:58.432Z,8.60
2019-02-23T14:33:29.950Z,8.50
2019-02-23T14:36:07.022Z,8.40
2019-02-23T14:38:58.079Z,8.30
2019-02-23T14:41:38.621Z,8.20
2019-02-23T14:44:15.680Z,8.20
2019-02-23T14:46:53.223Z,8.20
2019-02-23T14:49:24.820Z,8.30
2019-02-23T14:52:16.640Z,8.00
2019-02-23T14:55:00.834Z,7.90
2019-02-23T14:57:36.197Z,7.50
2019-02-23T15:00:13.451Z,7.50
2019-02-23T15:03:19.334Z,7.40
2019-02-23T15:05:56.390Z,7.50
2019-02-23T15:08:36.457Z,7.40
2019-02-23T15:11:13.706Z,7.20
2019-02-23T15:13:57.023Z,7.10
2019-02-23T15:16:37.415Z,7.10
2019-02-23T15:19:20.850Z,7.10
2019-02-23T15:22:16.334Z,7.10
2019-02-23T15:25:13.235Z,6.90
2019-02-23T15:27:43.278Z,6.70
2019-02-23T15:30:14.808Z,6.50
2019-02-23T15:33:01.177Z,6.40
2019-02-23T15:35:52.138Z,6.30
2019-02-23T15:38:49.287Z,6.30
2019-02-23T15:41:37.272Z,6.30
2019-02-23T15:44:11.716Z,6.20
2019-02-23T15:47:14.647Z,6.10
2019-02-23T15:49:43.292Z,6.00
2019-02-23T15:52:11.776Z,5.90
2019-02-23T15:54:40.192Z,5.80
2019-02-23T15:57:08.651Z,5.80
2019-02-23T15:59:37.212Z,5.70
2019-02-23T16:02:05.798Z,5.60
2019-02-23T16:04:34.270Z,5.50
2019-02-23T16:07:02.707Z,5.40
2019-02-23T16:09:31.196Z,5.30
2019-02-23T16:11:59.638Z,5.20
2019-02-23T16:14:28.055Z,5.10
2019-02-23T16:16:56.495Z,5.00
2019-02-23T16:19:24.922Z,5.00
2019-02-23T16:21:54.913Z,4.90
2019-02-23T16:24:23.336Z,4.80
2019-02-23T16:26:51.765Z,4.70
2019-02-23T16:29:20.251Z,4.70
2019-02-23T16:31:48.696Z,4.60
2019-02-23T16:34:17.111Z,4.40
2019-02-23T16:36:45.568Z,4.30
2019-02-23T16:39:13.982Z,4.30
2019-02-23T16:41:42.439Z,4.20
2019-02-23T16:44:10.931Z,4.10
2019-02-23T16:46:39.358Z,4.10
2019-02-23T16:49:07.774Z,3.90
2019-02-23T16:51:36.224Z,3.70
2019-02-23T16:54:04.789Z,3.60
2019-02-23T16:56:33.202Z,3.60
2019-02-23T16:59:01.635Z,3.50
2019-02-23T17:01:30.067Z,3.30
2019-02-23T17:03:58.569Z,3.30
2019-02-23T17:06:27.040Z,3.20
2019-02-23T17:08:55.486Z,3.20
2019-02-23T17:11:23.964Z,3.10
2019-02-23T17:13:52.435Z,3.00
2019-02-23T17:16:20.887Z,2.90
2019-02-23T17:18:49.429Z,2.90
2019-02-23T17:21:17.935Z,2.80
2019-02-23T17:23:46.375Z,2.80
2019-02-23T17:26:14.811Z,2.70
2019-02-23T17:28:43.315Z,2.70
2019-02-23T17:31:11.774Z,2.60
2019-02-23T17:33:40.194Z,2.60
2019-02-23T17:36:08.662Z,2.40
2019-02-23T17:38:37.101Z,2.40
2019-02-23T17:41:05.543Z,2.40
2019-02-23T17:43:33.990Z,2.40
2019-02-23T17:46:02.447Z,2.40
2019-02-23T17:51:00.379Z,2.30
2019-02-23T17:53:28.836Z,2.20
2019-02-23T17:55:57.273Z,2.20
2019-02-23T17:58:25.699Z,2.10
2019-02-23T18:00:54.142Z,2.00
2019-02-23T18:03:22.587Z,1.90
2019-02-23T18:05:51.021Z,1.70
2019-02-23T18:08:19.422Z,1.60
2019-02-23T18:10:47.863Z,1.50
2019-02-23T18:13:16.274Z,1.50
2019-02-23T18:15:44.718Z,1.50
2019-02-23T18:18:13.144Z,1.40
2019-02-23T18:20:41.563Z,1.40
2019-02-23T18:23:09.991Z,1.60
2019-02-23T18:25:38.442Z,1.50
2019-02-23T18:28:06.929Z,1.40
2019-02-23T18:30:35.365Z,1.40
2019-02-23T18:33:03.801Z,1.40
2019-02-23T18:35:32.263Z,1.40
2019-02-23T18:38:00.670Z,1.50
2019-02-23T18:40:29.095Z,1.40
2019-02-23T18:42:57.515Z,1.40
2019-02-23T18:45:25.950Z,1.30
2019-02-23T18:47:54.438Z,1.30
2019-02-23T18:50:22.863Z,1.30
2019-02-23T18:52:51.301Z,1.20
2019-02-23T18:55:19.790Z,1.20
2019-02-23T18:57:48.264Z,1.10
2019-02-23T19:00:24.174Z,0.90
2019-02-23T19:02:46.948Z,0.90
2019-02-23T19:05:15.367Z,0.90
2019-02-23T19:07:43.798Z,0.80
2019-02-23T19:10:13.675Z,0.80
2019-02-23T19:12:42.134Z,0.80
2019-02-23T19:15:15.069Z,0.70
2019-02-23T19:17:43.499Z,0.70
2019-02-23T19:20:14.330Z,0.70
2019-02-23T19:22:42.769Z,0.60
2019-02-23T19:25:11.654Z,0.60
2019-02-23T19:27:40.098Z,0.40
2019-02-23T19:30:13.639Z,0.30
2019-02-23T19:32:42.063Z,0.30
2019-02-23T19:35:10.565Z,0.30
2019-02-23T19:37:39.017Z,0.20
2019-02-23T19:40:09.071Z,0.00
2019-02-23T19:42:37.587Z,-0.20
2019-02-23T19:45:08.956Z,-0.30
2019-02-23T19:47:37.938Z,-0.50
2019-02-23T19:50:09.463Z,-0.50
2019-02-23T19:52:37.984Z,-0.60
2019-02-23T19:55:09.458Z,-0.60
2019-02-23T19:57:37.923Z,-0.70
2019-02-23T20:00:08.684Z,-0.80
2019-02-23T20:02:37.139Z,-0.90
2019-02-23T20:05:10.351Z,-0.90
2019-02-23T20:07:38.826Z,-1.00
2019-02-23T20:10:10.939Z,-1.10
2019-02-23T20:12:39.373Z,-1.00
2019-02-23T20:15:09.543Z,-1.00
2019-02-23T20:17:37.969Z,-0.90
2019-02-23T20:20:07.352Z,-0.90
2019-02-23T20:22:35.795Z,-1.00
2019-02-23T20:25:05.967Z,-1.00
2019-02-23T20:27:34.419Z,-1.10
2019-02-23T20:30:02.923Z,-1.10
2019-02-23T20:32:31.808Z,-1.10
2019-02-23T20:35:00.271Z,-1.10
2019-02-23T20:37:28.748Z,-1.00
2019-02-23T20:39:57.196Z,-0.90
2019-02-23T20:42:25.691Z,-0.90
2019-02-23T20:44:54.140Z,-0.90
2019-02-23T20:47:22.575Z,-0.90
2019-02-23T20:49:51.127Z,-0.90
2019-02-23T20:52:19.530Z,-1.00
2019-02-23T20:54:47.975Z,-0.90
2019-02-23T20:57:16.479Z,-1.00
2019-02-23T20:59:44.940Z,-0.90
2019-02-23T21:02:13.490Z,-0.80
2019-02-23T21:04:41.954Z,-0.90
2019-02-23T21:07:10.373Z,-1.00
2019-02-23T21:09:38.883Z,-1.20
2019-02-23T21:12:07.329Z,-1.20
2019-02-23T21:14:35.753Z,-1.30
2019-02-23T21:17:04.181Z,-1.40
2019-02-23T21:19:32.678Z,-1.50
2019-02-23T21:22:01.123Z,-1.50
2019-02-23T21:24:29.542Z,-1.50
2019-02-23T21:26:58.028Z,-1.50
2019-02-23T21:29:26.475Z,-1.40
2019-02-23T21:31:54.947Z,-1.40
2019-02-23T21:34:23.359Z,-1.50
2019-02-23T21:36:51.823Z,-1.60
2019-02-23T21:39:20.250Z,-1.70
2019-02-23T21:41:48.707Z,-1.80
2019-02-23T21:44:17.131Z,-1.80
2019-02-23T21:46:45.576Z,-1.80
2019-02-23T21:49:14.009Z,-1.90
2019-02-23T21:51:42.458Z,-2.00
2019-02-23T21:54:11.356Z,-2.00
2019-02-23T21:56:39.941Z,-2.00
2019-02-23T21:59:08.449Z,-2.00
2019-02-23T22:01:36.897Z,-2.00
2019-02-23T22:04:05.317Z,-2.00
2019-02-23T22:06:33.828Z,-2.00
2019-02-23T22:09:02.435Z,-2.10
2019-02-23T22:11:30.922Z,-1.90
2019-02-23T22:13:59.347Z,-1.90
2019-02-23T22:16:27.814Z,-1.80
2019-02-23T22:18:56.256Z,-1.90
2019-02-23T22:21:24.684Z,-1.90
2019-02-23T22:23:53.119Z,-2.00
2019-02-23T22:26:21.553Z,-2.10
2019-02-23T22:28:50.003Z,-2.20
2019-02-23T22:31:18.433Z,-2.20
2019-02-23T22:33:46.892Z,-2.30
2019-02-23T22:36:15.316Z,-2.30
2019-02-23T22:38:43.756Z,-2.30
2019-02-23T22:41:12.170Z,-2.40
2019-02-23T22:43:40.636Z,-2.30
2019-02-23T22:46:09.141Z,-2.30
2019-02-23T22:48:37.578Z,-2.30
2019-02-23T22:51:06.008Z,-2.30
2019-02-23T22:53:34.463Z,-2.30
2019-02-23T22:56:02.901Z,-2.40
2019-02-23T22:58:31.330Z,-2.40
2019-02-23T23:01:01.631Z,-2.50
2019-02-23T23:03:30.051Z,-2.40
2019-02-23T23:05:58.501Z,-2.10
2019-02-23T23:08:26.934Z,-2.20
2019-02-23T23:10:55.346Z,-2.20
2019-02-23T23:13:23.810Z,-2.30
2019-02-23T23:15:52.300Z,-2.30
2019-02-23T23:18:20.724Z,-2.40
2019-02-23T23:20:49.199Z,-2.50
2019-02-23T23:23:17.611Z,-2.50
2019-02-23T23:25:46.068Z,-2.60
2019-02-23T23:28:14.496Z,-2.60
2019-02-23T23:30:42.999Z,-2.70
2019-02-23T23:33:11.485Z,-2.70
2019-02-23T23:35:39.955Z,-2.70
2019-02-23T23:38:08.374Z,-2.70
2019-02-23T23:40:36.816Z,-2.70
2019-02-23T23:43:05.264Z,-2.70
2019-02-23T23:45:33.769Z,-2.80
2019-02-23T23:48:02.195Z,-2.20
2019-02-23T23:50:30.662Z,-2.30
2019-02-23T23:52:59.086Z,-2.40
2019-02-23T23:55:27.530Z,-2.50
2019-02-23T23:57:58.358Z,-2.60
